Time;durP1;ratioP1;P1;durP2;ratioP2;P2;SDS_P1;SDS_P2;PMS_P1;PMS_P2;Temp;Humidity;BMP_temperature;BMP_pressure;BME280_temperature;BME280_humidity;BME280_pressure;Samples;Min_cycle;Max_cycle;Signal;HPM_P1;HPM_P2
2022/03/11 00:03:34;;;;;;;12.60;6.30;;;;;;;-0.10;35.95;99012.28;12787723;23;20036;-81
2022/03/11 00:08:56;;;;;;;13.35;6.22;;;;;;;-0.20;36.27;99008.25;12835824;23;20021;-81
2022/03/11 00:14:18;;;;;;;10.73;5.68;;;;;;;-0.23;35.97;99003.75;12815692;23;20462;-81
2022/03/11 00:19:39;;;;;;;12.80;6.70;;;;;;;-0.23;35.88;99011.97;12836851;23;20036;-80
2022/03/11 00:25:00;;;;;;;10.43;6.00;;;;;;;-0.25;35.92;99019.97;12774974;23;20028;-80
2022/03/11 00:30:21;;;;;;;12.35;6.80;;;;;;;-0.28;35.98;99027.19;12795003;23;20460;-81
2022/03/11 00:35:42;;;;;;;12.63;6.00;;;;;;;-0.30;35.91;99021.41;12812843;23;20044;-80
2022/03/11 00:41:03;;;;;;;12.32;6.82;;;;;;;-0.36;36.47;99018.66;12771699;23;20028;-81
2022/03/11 00:46:24;;;;;;;13.30;6.57;;;;;;;-0.40;36.91;99026.34;12833370;23;20017;-81
2022/03/11 00:51:46;;;;;;;13.70;7.38;;;;;;;-0.37;36.92;99010.91;12792106;23;20017;-80
2022/03/11 00:57:07;;;;;;;13.18;7.38;;;;;;;-0.37;36.90;99017.16;12814765;23;20013;-81
2022/03/11 01:02:33;;;;;;;14.50;7.00;;;;;;;-0.41;37.40;99015.88;12771648;23;20025;-81
2022/03/11 01:07:56;;;;;;;15.25;7.47;;;;;;;-0.44;37.45;99008.63;12793024;23;20017;-81
2022/03/11 01:13:18;;;;;;;15.25;7.70;;;;;;;-0.45;37.45;99018.09;12834831;23;20012;-81
2022/03/11 01:18:41;;;;;;;13.65;7.30;;;;;;;-0.47;37.71;99004.13;12774879;23;20017;-80
2022/03/11 01:24:03;;;;;;;13.35;7.43;;;;;;;-0.52;37.72;98993.84;12814777;23;20021;-80
2022/03/11 01:29:24;;;;;;;13.32;6.93;;;;;;;-0.59;38.56;98995.78;12772188;23;20024;-80
2022/03/11 01:34:45;;;;;;;16.63;7.82;;;;;;;-0.63;38.45;98989.78;12793465;23;20048;-80
2022/03/11 01:40:07;;;;;;;14.02;6.90;;;;;;;-0.62;37.66;98996.03;12814749;23;20029;-81
2022/03/11 01:45:28;;;;;;;15.88;7.22;;;;;;;-0.67;38.02;98994.03;12813717;23;20016;-80
2022/03/11 01:50:48;;;;;;;12.45;6.35;;;;;;;-0.71;38.27;98982.50;12814186;23;20463;-81
2022/03/11 01:56:09;;;;;;;16.67;7.60;;;;;;;-0.83;37.72;98983.69;12814373;23;20032;-80
2022/03/11 02:01:31;;;;;;;14.43;7.40;;;;;;;-0.92;38.63;98968.91;12791803;23;20434;-80
2022/03/11 02:06:53;;;;;;;13.68;6.93;;;;;;;-0.93;38.53;98978.38;12787881;23;20017;-81
2022/03/11 02:12:30;;;;;;;14.15;7.10;;;;;;;-1.04;38.82;98972.81;12811894;23;20021;-81
2022/03/11 02:17:51;;;;;;;15.70;7.20;;;;;;;-1.16;38.91;98973.94;12793480;23;20048;-81
2022/03/11 02:23:12;;;;;;;13.63;7.18;;;;;;;-1.22;39.31;98973.16;12812877;23;20017;-81
2022/03/11 02:28:33;;;;;;;17.25;7.45;;;;;;;-1.33;39.35;98965.59;12793056;23;20044;-80
2022/03/11 02:33:54;;;;;;;16.35;7.25;;;;;;;-1.38;39.17;98977.22;12812203;23;20021;-81
2022/03/11 02:39:15;;;;;;;16.17;7.57;;;;;;;-1.45;39.41;98962.00;12793465;23;20029;-82
2022/03/11 02:44:36;;;;;;;15.60;7.20;;;;;;;-1.49;39.56;98969.66;12813002;23;20021;-81
2022/03/11 02:49:58;;;;;;;16.38;7.13;;;;;;;-1.48;39.89;98957.47;12813402;23;20013;-81
2022/03/11 02:55:19;;;;;;;14.02;7.10;;;;;;;-1.54;39.63;98948.47;12834204;23;20032;-81
2022/03/11 03:00:41;;;;;;;13.75;7.47;;;;;;;-1.52;39.16;98946.00;12793182;23;20033;-81
2022/03/11 03:06:03;;;;;;;14.43;7.45;;;;;;;-1.54;39.95;98942.25;12794766;23;20090;-80
2022/03/11 03:11:24;;;;;;;14.18;7.40;;;;;;;-1.55;39.52;98940.72;12773266;23;20017;-81
2022/03/11 03:16:45;;;;;;;14.95;7.80;;;;;;;-1.62;39.77;98936.44;12801269;23;20025;-81
2022/03/11 03:22:07;;;;;;;15.10;7.10;;;;;;;-1.62;39.33;98941.16;12799662;23;20037;-80
2022/03/11 03:27:29;;;;;;;15.07;6.70;;;;;;;-1.74;39.65;98940.28;12820336;23;20017;-81
2022/03/11 03:32:50;;;;;;;13.77;7.10;;;;;;;-1.74;39.34;98945.75;12818616;23;20025;-81
2022/03/11 03:38:11;;;;;;;17.02;7.13;;;;;;;-1.77;39.72;98942.00;12773487;23;20024;-81
2022/03/11 03:43:32;;;;;;;15.52;6.38;;;;;;;-1.82;39.52;98939.22;12818044;23;20023;-80
2022/03/11 03:48:53;;;;;;;13.40;6.93;;;;;;;-1.89;40.84;98932.19;12779293;23;20017;-81
2022/03/11 03:54:14;;;;;;;12.48;6.55;;;;;;;-1.94;40.05;98932.09;12821103;23;20021;-82
2022/03/11 03:59:35;;;;;;;13.35;7.00;;;;;;;-1.97;40.14;98933.06;12820154;23;20112;-81
2022/03/11 04:04:58;;;;;;;14.75;6.93;;;;;;;-2.00;40.00;98943.00;12829567;23;20028;-79
2022/03/11 04:10:19;;;;;;;15.30;7.40;;;;;;;-1.97;39.41;98939.31;12822271;23;20076;-81
2022/03/11 04:15:40;;;;;;;13.38;6.60;;;;;;;-1.97;39.94;98938.56;12801586;23;20048;-80
2022/03/11 04:21:02;;;;;;;12.50;6.25;;;;;;;-2.03;39.96;98942.00;12802089;23;20048;-78
2022/03/11 04:26:22;;;;;;;15.35;5.80;;;;;;;-2.11;39.88;98940.91;12822863;23;20024;-80
2022/03/11 04:31:44;;;;;;;12.90;6.75;;;;;;;-2.15;40.30;98934.88;12824675;23;20069;-80
2022/03/11 04:37:05;;;;;;;10.35;6.22;;;;;;;-2.20;39.94;98929.34;12795965;23;20036;-81
2022/03/11 04:42:26;;;;;;;12.60;6.65;;;;;;;-2.22;40.22;98923.56;12801173;23;20008;-81
2022/03/11 04:47:47;;;;;;;10.85;6.18;;;;;;;-2.34;40.51;98925.44;12800587;23;20017;-81
2022/03/11 04:53:08;;;;;;;12.15;5.68;;;;;;;-2.35;40.18;98926.66;12820590;23;20028;-80
2022/03/11 04:58:29;;;;;;;12.43;6.40;;;;;;;-2.41;40.59;98936.81;12821286;23;20025;-82
2022/03/11 05:03:53;;;;;;;11.13;6.35;;;;;;;-2.44;40.86;98935.75;12801156;23;20025;-80
2022/03/11 05:09:14;;;;;;;10.02;5.68;;;;;;;-2.48;40.50;98943.41;12800668;23;20044;-80
2022/03/11 05:14:35;;;;;;;9.45;5.47;;;;;;;-2.48;40.84;98926.25;12798999;23;20040;-81
2022/03/11 05:19:56;;;;;;;9.52;5.70;;;;;;;-2.47;40.80;98944.16;12819295;23;20021;-80
2022/03/11 05:25:17;;;;;;;12.65;6.57;;;;;;;-2.52;41.38;98944.84;12819599;23;20039;-81
2022/03/11 05:30:37;;;;;;;13.25;6.25;;;;;;;-2.42;41.19;98946.22;12818951;23;20020;-80
2022/03/11 05:35:58;;;;;;;10.45;5.70;;;;;;;-2.16;41.16;98952.50;12798243;23;20044;-81
2022/03/11 05:41:19;;;;;;;14.18;6.28;;;;;;;-0.71;39.60;98952.34;12805136;23;20021;-81
2022/03/11 05:46:40;;;;;;;11.00;6.30;;;;;;;0.91;37.70;98955.59;12825800;23;20017;-81
2022/03/11 05:52:01;;;;;;;11.88;6.18;;;;;;;2.64;35.40;98954.28;12839708;23;20069;-81
2022/03/11 05:57:22;;;;;;;11.90;6.20;;;;;;;4.12;32.87;98961.38;12812035;23;20099;-80
2022/03/11 06:02:42;;;;;;;11.80;6.60;;;;;;;5.09;31.19;98957.44;12794813;23;20024;-81
2022/03/11 06:08:04;;;;;;;11.68;6.78;;;;;;;4.44;31.31;98970.50;12820079;23;20017;-81
2022/03/11 06:13:25;;;;;;;13.80;7.10;;;;;;;6.88;29.06;98976.84;12796565;23;20021;-79
2022/03/11 06:18:49;;;;;;;10.75;6.45;;;;;;;8.67;28.69;98979.66;12800474;23;20436;-79
2022/03/11 06:24:09;;;;;;;9.65;6.75;;;;;;;9.78;26.00;98974.50;12803406;23;20017;-79
2022/03/11 06:29:30;;;;;;;12.13;7.18;;;;;;;10.55;22.63;98989.00;12805973;23;20019;-79
2022/03/11 06:34:54;;;;;;;12.25;7.45;;;;;;;11.86;22.54;99001.50;12825184;23;20021;-80
2022/03/11 06:40:17;;;;;;;12.98;7.05;;;;;;;13.63;21.49;99003.50;12849970;23;20088;-80
2022/03/11 06:45:38;;;;;;;10.60;6.82;;;;;;;15.12;19.18;98995.31;12804199;23;20071;-80
2022/03/11 06:51:04;;;;;;;14.98;6.93;;;;;;;15.92;20.28;98998.66;12827423;23;20013;-78
2022/03/11 06:56:25;;;;;;;11.10;7.18;;;;;;;15.51;19.10;99000.78;12809154;23;20017;-79
2022/03/11 07:01:46;;;;;;;12.38;6.88;;;;;;;13.01;19.49;99000.13;12832178;23;20092;-78
2022/03/11 07:07:07;;;;;;;9.52;6.47;;;;;;;15.31;18.15;99000.88;12769548;23;20397;-79
2022/03/11 07:12:28;;;;;;;12.07;6.28;;;;;;;16.57;16.38;99002.88;12696960;23;20014;-82
2022/03/11 07:17:49;;;;;;;7.65;6.13;;;;;;;17.41;13.69;99000.38;12716944;23;20487;-81
2022/03/11 07:23:10;;;;;;;10.75;6.28;;;;;;;18.20;14.33;98995.84;12757590;23;20431;-84
2022/03/11 07:28:31;;;;;;;9.23;5.93;;;;;;;17.56;13.49;98999.13;12716673;23;20013;-82
2022/03/11 07:33:51;;;;;;;7.32;5.57;;;;;;;15.54;14.32;99005.97;12716832;23;20337;-80
2022/03/11 07:39:13;;;;;;;9.35;6.15;;;;;;;13.20;16.45;99014.25;12716479;23;20017;-80
2022/03/11 07:44:34;;;;;;;8.38;5.40;;;;;;;11.35;18.15;99016.81;12737063;23;20025;-79
2022/03/11 07:49:57;;;;;;;8.07;5.43;;;;;;;11.33;18.96;99007.53;12696377;23;20072;-79
2022/03/11 07:55:22;;;;;;;6.22;4.60;;;;;;;11.73;18.93;99013.72;12696554;23;20429;-80
2022/03/11 08:00:42;;;;;;;;;;;;;;;13.10;18.06;99019.06;12739491;23;20024;-80
2022/03/11 08:06:04;;;;;;;9.65;5.13;;;;;;;16.43;15.03;99018.88;12734657;23;19924;-80
2022/03/11 08:11:25;;;;;;;6.25;4.78;;;;;;;20.44;12.40;99024.75;12740815;23;20014;-80
2022/03/11 08:16:46;;;;;;;7.43;5.13;;;;;;;24.42;10.03;99023.41;12760954;23;20032;-80
2022/03/11 08:22:08;;;;;;;5.18;4.57;;;;;;;25.61;8.72;99028.47;12740172;23;20013;-80
2022/03/11 08:27:29;;;;;;;5.53;4.30;;;;;;;24.32;8.48;99008.03;12739941;23;20025;-80
2022/03/11 08:32:50;;;;;;;7.38;4.70;;;;;;;24.54;8.56;99026.63;12739681;23;20022;-81
2022/03/11 08:38:11;;;;;;;7.10;4.03;;;;;;;25.59;8.08;99024.81;12759707;23;20044;-81
2022/03/11 08:43:33;;;;;;;6.05;4.05;;;;;;;27.31;7.50;99019.09;12719283;23;20044;-80
2022/03/11 08:48:54;;;;;;;6.78;4.35;;;;;;;27.82;6.70;99034.50;12738997;23;20025;-80
2022/03/11 08:54:15;;;;;;;6.03;4.03;;;;;;;28.11;6.59;99039.38;12740173;23;20017;-81
2022/03/11 08:59:36;;;;;;;4.78;3.85;;;;;;;27.23;6.72;99030.41;12738941;23;20017;-81
2022/03/11 09:04:56;;;;;;;7.75;3.75;;;;;;;25.81;7.21;99031.19;12777138;23;20025;-81
2022/03/11 09:10:20;;;;;;;6.68;3.75;;;;;;;26.63;6.92;99028.28;12779132;23;20023;-80
2022/03/11 09:15:41;;;;;;;5.43;3.95;;;;;;;25.84;7.05;99012.66;12780734;23;20013;-80
2022/03/11 09:21:03;;;;;;;5.43;3.45;;;;;;;26.49;6.54;99020.09;12800807;23;20045;-81
2022/03/11 09:26:23;;;;;;;9.32;3.70;;;;;;;26.18;6.99;99023.59;12758543;23;20024;-81
2022/03/11 09:32:05;;;;;;;4.30;3.63;;;;;;;25.74;7.08;99029.56;12801186;23;20017;-81
2022/03/11 09:37:26;;;;;;;6.97;3.70;;;;;;;25.79;7.16;99011.13;12779215;23;20036;-83
2022/03/11 09:42:50;;;;;;;4.85;3.38;;;;;;;24.90;7.08;99017.03;12790863;23;20039;-80
2022/03/11 09:48:11;;;;;;;5.22;3.30;;;;;;;25.99;6.86;99007.34;12772505;23;20025;-81
2022/03/11 09:53:35;;;;;;;5.93;3.30;;;;;;;28.27;5.95;99001.59;12779233;23;20013;-81
2022/03/11 09:58:56;;;;;;;5.85;3.30;;;;;;;27.19;5.62;99001.66;12757882;23;20051;-82
2022/03/11 10:04:17;;;;;;;5.28;3.28;;;;;;;26.73;6.32;99004.91;12788941;23;20352;-80
2022/03/11 10:09:38;;;;;;;3.55;2.92;;;;;;;26.81;5.89;98993.63;12758251;23;20028;-81
2022/03/11 10:15:00;;;;;;;7.13;3.20;;;;;;;26.03;6.47;98999.59;12779116;23;20345;-81
2022/03/11 10:20:21;;;;;;;6.47;2.97;;;;;;;27.75;5.87;98984.91;12778713;23;20454;-81
2022/03/11 10:25:42;;;;;;;6.78;2.80;;;;;;;28.17;5.39;98976.31;12758680;23;20025;-80
2022/03/11 10:31:08;;;;;;;3.13;2.83;;;;;;;27.79;5.60;98984.22;12733352;23;20029;-80
2022/03/11 10:36:28;;;;;;;5.15;2.55;;;;;;;27.08;5.54;99010.03;12778919;23;20044;-80
2022/03/11 10:41:50;;;;;;;5.18;2.70;;;;;;;28.69;5.43;98975.75;12777939;23;20458;-81
2022/03/11 10:47:28;;;;;;;3.53;2.97;;;;;;;29.52;5.17;98981.16;12778599;23;20100;-80
2022/03/11 10:52:50;;;;;;;9.20;2.80;;;;;;;27.26;5.48;98988.91;12778164;23;20021;-79
2022/03/11 10:58:16;;;;;;;5.32;3.30;;;;;;;26.96;5.68;98988.97;12777073;23;20259;-79
2022/03/11 11:03:37;;;;;;;11.05;3.97;;;;;;;24.50;6.11;98971.53;12792427;23;20032;-78
2022/03/11 11:08:58;;;;;;;6.47;4.10;;;;;;;17.74;9.71;98957.88;12799102;23;20016;-78
2022/03/11 11:14:18;;;;;;;6.25;4.05;;;;;;;15.13;11.26;98960.97;12769931;23;20083;-76
2022/03/11 11:19:39;;;;;;;6.03;4.45;;;;;;;13.91;12.70;98938.28;12798162;23;20024;-79
2022/03/11 11:25:00;;;;;;;5.22;4.38;;;;;;;13.50;13.16;98945.00;12757760;23;20017;-78
2022/03/11 11:30:21;;;;;;;6.45;4.55;;;;;;;12.80;13.04;98945.31;12778903;23;20428;-77
2022/03/11 11:35:43;;;;;;;8.20;4.25;;;;;;;11.94;13.79;98962.25;12782024;23;20013;-77
2022/03/11 11:41:23;;;;;;;7.75;4.20;;;;;;;10.93;15.30;98918.94;12783993;23;20024;-78
2022/03/11 11:47:06;;;;;;;8.27;4.60;;;;;;;10.97;15.36;98921.34;12803880;23;20041;-78
2022/03/11 11:52:35;;;;;;;8.50;4.57;;;;;;;10.64;15.18;98901.09;12783566;23;20101;-77
2022/03/11 11:58:21;;;;;;;6.00;4.40;;;;;;;11.03;15.55;98903.03;12808852;23;20017;-77
2022/03/11 12:03:49;;;;;;;9.65;5.03;;;;;;;10.47;15.91;98913.66;12796355;23;20068;-77
2022/03/11 12:09:10;;;;;;;8.10;4.78;;;;;;;10.16;16.25;98909.50;12802939;23;20012;-77
2022/03/11 12:14:31;;;;;;;6.05;4.50;;;;;;;9.67;16.28;98908.00;12824365;23;20056;-77
2022/03/11 12:19:52;;;;;;;9.20;4.80;;;;;;;9.58;17.09;98861.19;12803319;23;20337;-77
2022/03/11 12:25:14;;;;;;;9.82;5.70;;;;;;;9.43;17.22;98885.00;12802592;23;20440;-77
2022/03/11 12:30:36;;;;;;;7.63;5.85;;;;;;;9.38;17.45;98874.06;12802981;23;20013;-78
2022/03/11 12:35:57;;;;;;;8.27;5.93;;;;;;;9.07;17.40;98867.75;12802455;23;20013;-78
2022/03/11 12:41:23;;;;;;;8.15;5.60;;;;;;;9.17;17.34;98874.28;12802288;23;20363;-77
2022/03/11 12:46:44;;;;;;;7.40;5.15;;;;;;;8.75;17.75;98885.75;12801724;23;20013;-77
2022/03/11 12:52:17;;;;;;;7.03;4.68;;;;;;;8.85;17.94;98855.31;12801657;23;20020;-77
2022/03/11 12:57:38;;;;;;;7.82;4.75;;;;;;;8.73;18.23;98857.75;12801716;23;20021;-77
2022/03/11 13:02:59;;;;;;;7.05;4.63;;;;;;;8.69;17.89;98862.94;12806179;23;20336;-76
2022/03/11 13:08:21;;;;;;;10.50;5.57;;;;;;;8.48;18.32;98863.09;12763709;23;20024;-77
2022/03/11 13:13:42;;;;;;;8.63;5.80;;;;;;;8.44;18.09;98859.94;12801122;23;20017;-76
2022/03/11 13:19:05;;;;;;;10.02;4.70;;;;;;;8.25;18.22;98842.81;12780249;23;20048;-76
2022/03/11 13:24:26;;;;;;;7.35;4.65;;;;;;;8.32;18.02;98844.88;12800679;23;20013;-79
2022/03/11 13:29:47;;;;;;;8.18;4.75;;;;;;;8.29;17.93;98863.38;12780696;23;20436;-78
2022/03/11 13:35:10;;;;;;;8.65;5.05;;;;;;;8.22;18.43;98839.09;12766372;23;20017;-77
2022/03/11 13:40:32;;;;;;;7.57;5.70;;;;;;;8.41;18.63;98829.72;12780290;23;20017;-77
2022/03/11 13:45:54;;;;;;;10.65;5.20;;;;;;;8.46;18.41;98814.84;12822486;23;20341;-76
2022/03/11 13:51:15;;;;;;;10.60;5.13;;;;;;;8.38;18.14;98833.56;12778948;23;20020;-77
2022/03/11 13:56:40;;;;;;;8.25;4.85;;;;;;;8.15;18.09;98814.78;12778826;23;20013;-77
2022/03/11 14:02:16;;;;;;;6.30;4.65;;;;;;;7.96;17.66;98820.66;12780720;23;20021;-77
2022/03/11 14:07:37;;;;;;;9.98;4.90;;;;;;;7.75;18.17;98822.81;12782150;23;20017;-77
2022/03/11 14:12:59;;;;;;;7.28;4.72;;;;;;;7.71;17.89;98822.41;12776236;23;20428;-76
2022/03/11 14:18:26;;;;;;;6.40;4.47;;;;;;;7.40;17.54;98821.53;12757254;23;20024;-77
2022/03/11 14:23:55;;;;;;;7.45;4.90;;;;;;;7.60;18.15;98815.16;12779748;23;20044;-76
2022/03/11 14:29:19;;;;;;;12.00;4.40;;;;;;;7.40;17.40;98813.22;12798050;23;20012;-76
2022/03/11 14:34:40;;;;;;;8.05;4.20;;;;;;;7.34;17.50;98807.09;12818033;23;20013;-77
2022/03/11 14:40:02;;;;;;;6.38;3.90;;;;;;;7.30;17.16;98799.09;12796286;23;20021;-77
2022/03/11 14:45:22;;;;;;;7.43;3.83;;;;;;;7.16;16.94;98812.34;12796464;23;20013;-74
2022/03/11 14:50:43;;;;;;;6.53;4.00;;;;;;;7.02;17.15;98799.84;12795982;23;20020;-74
2022/03/11 14:56:05;;;;;;;7.60;4.15;;;;;;;7.06;17.96;98783.59;12796669;23;20020;-76
2022/03/11 15:01:26;;;;;;;7.22;4.07;;;;;;;6.82;17.56;98793.06;12795972;23;20075;-77
2022/03/11 15:06:47;;;;;;;6.65;3.95;;;;;;;6.77;17.99;98793.22;12670055;23;1118346;-77
2022/03/11 15:12:10;;;;;;;6.97;4.20;;;;;;;6.87;17.78;98788.66;12722437;23;20425;-77
2022/03/11 15:17:32;;;;;;;7.97;4.18;;;;;;;6.72;17.76;98785.75;12750591;23;20041;-77
2022/03/11 15:22:53;;;;;;;7.55;4.65;;;;;;;6.48;17.84;98779.31;12721513;23;20517;-77
2022/03/11 15:28:14;;;;;;;9.43;4.40;;;;;;;6.31;18.25;98767.88;12720953;23;20309;-77
2022/03/11 15:33:34;;;;;;;6.70;4.45;;;;;;;6.38;18.69;98775.53;12720233;23;20013;-77
2022/03/11 15:38:59;;;;;;;10.38;4.03;;;;;;;6.21;18.65;98769.63;12754005;23;20025;-77
2022/03/11 15:44:19;;;;;;;6.93;4.45;;;;;;;6.16;18.68;98751.09;12740239;23;20020;-77
2022/03/11 15:49:40;;;;;;;7.00;3.97;;;;;;;6.10;18.89;98748.47;12740138;23;20048;-77
2022/03/11 15:55:05;;;;;;;7.20;4.50;;;;;;;5.98;18.93;98770.16;12719805;23;20084;-77
2022/03/11 16:00:26;;;;;;;8.50;4.72;;;;;;;5.95;18.78;98764.94;12740802;23;20017;-77
2022/03/11 16:05:47;;;;;;;6.55;4.60;;;;;;;5.78;19.35;98762.50;12719441;23;20025;-77
2022/03/11 16:11:08;;;;;;;8.65;4.82;;;;;;;5.75;19.96;98774.69;12760575;23;20460;-77
2022/03/11 16:16:29;;;;;;;7.75;4.95;;;;;;;5.51;20.07;98769.44;12699786;23;20021;-77
2022/03/11 16:21:50;;;;;;;8.75;5.05;;;;;;;5.46;20.52;98771.03;12738740;23;20017;-77
2022/03/11 16:27:11;;;;;;;6.95;4.50;;;;;;;5.19;20.38;98786.91;12740732;23;20080;-77
2022/03/11 16:32:32;;;;;;;5.97;4.10;;;;;;;5.00;20.02;98775.22;12700418;23;20452;-77
2022/03/11 16:37:53;;;;;;;6.70;4.03;;;;;;;4.83;19.78;98779.06;12764479;23;20013;-77
2022/03/11 16:43:16;;;;;;;10.07;4.30;;;;;;;4.67;20.73;98773.81;12739269;23;20048;-79
2022/03/11 16:48:41;;;;;;;7.57;4.68;;;;;;;4.59;20.49;98776.47;12681873;23;20310;-78
2022/03/11 16:54:03;;;;;;;8.43;4.85;;;;;;;4.54;21.60;98780.09;12739978;23;20072;-77
2022/03/11 16:59:29;;;;;;;8.75;4.90;;;;;;;4.42;21.00;98790.56;12720236;23;20084;-77
2022/03/11 17:04:50;;;;;;;10.60;4.60;;;;;;;4.32;20.81;98787.44;12783887;23;20029;-77
2022/03/11 17:10:11;;;;;;;8.07;4.13;;;;;;;4.19;21.06;98781.88;12779662;23;20013;-77
2022/03/11 17:15:31;;;;;;;10.07;4.82;;;;;;;4.13;22.08;98784.00;12779365;23;20013;-78
2022/03/11 17:20:52;;;;;;;10.98;5.05;;;;;;;4.05;22.39;98782.34;12780295;23;20440;-75
2022/03/11 17:26:13;;;;;;;8.35;5.10;;;;;;;3.99;22.38;98810.84;12759820;23;20075;-75
2022/03/11 17:31:34;;;;;;;8.00;4.82;;;;;;;3.88;22.51;98782.63;12800187;23;20017;-77
2022/03/11 17:36:54;;;;;;;8.38;4.88;;;;;;;3.83;22.48;98786.94;12799615;23;20013;-76
2022/03/11 17:42:15;;;;;;;9.38;4.95;;;;;;;3.72;23.41;98793.38;12800419;23;20319;-77
2022/03/11 17:47:38;;;;;;;10.98;5.28;;;;;;;3.63;23.36;98768.16;12759309;23;20381;-76
2022/03/11 17:52:59;;;;;;;9.95;5.50;;;;;;;3.47;23.67;98788.44;12758873;23;20322;-77
2022/03/11 17:58:19;;;;;;;7.75;4.93;;;;;;;3.40;23.88;98778.75;12800125;23;20048;-77
2022/03/11 18:03:40;;;;;;;8.50;5.28;;;;;;;3.27;23.80;98782.16;12771074;23;20021;-77
2022/03/11 18:09:04;;;;;;;9.30;5.50;;;;;;;3.17;24.52;98781.75;12779667;23;20024;-79
2022/03/11 18:14:39;;;;;;;9.77;5.70;;;;;;;3.12;24.46;98796.38;12782410;23;20048;-77
2022/03/11 18:20:01;;;;;;;8.13;5.10;;;;;;;3.09;24.23;98785.66;12799166;23;20398;-77
2022/03/11 18:25:22;;;;;;;11.38;5.00;;;;;;;3.01;24.41;98782.72;12758186;23;20083;-77
2022/03/11 18:30:44;;;;;;;10.00;5.35;;;;;;;2.94;24.48;98786.06;12778048;23;20047;-77
2022/03/11 18:36:05;;;;;;;12.32;5.43;;;;;;;2.85;24.24;98789.16;12798870;23;20436;-77
2022/03/11 18:41:43;;;;;;;8.80;5.35;;;;;;;2.79;24.43;98785.69;12781621;23;20336;-77
2022/03/11 18:47:04;;;;;;;8.32;5.22;;;;;;;2.64;24.42;98782.59;12777639;23;20019;-77
2022/03/11 18:52:25;;;;;;;10.20;5.43;;;;;;;2.57;25.00;98790.16;12798967;23;20013;-77
2022/03/11 18:57:46;;;;;;;10.25;5.75;;;;;;;2.47;24.84;98785.50;12759420;23;20019;-76
2022/03/11 19:03:07;;;;;;;11.38;5.43;;;;;;;2.45;24.78;98799.81;12757473;23;20156;-78
2022/03/11 19:08:34;;;;;;;8.07;4.85;;;;;;;2.36;25.01;98791.13;12761912;23;20024;-79
2022/03/11 19:13:58;;;;;;;8.68;5.00;;;;;;;2.30;24.81;98778.13;12764232;23;20092;-79
2022/03/11 19:19:19;;;;;;;7.80;5.53;;;;;;;2.22;25.01;98787.47;12771497;23;20095;-78
2022/03/11 19:24:40;;;;;;;7.20;4.40;;;;;;;2.18;24.84;98782.25;12790969;23;20017;-79
2022/03/11 19:30:04;;;;;;;10.70;5.93;;;;;;;2.03;25.42;98787.38;12806236;23;20033;-76
2022/03/11 19:35:25;;;;;;;12.55;6.10;;;;;;;1.98;25.14;98797.16;12778553;23;20021;-77
2022/03/11 19:40:47;;;;;;;9.48;5.35;;;;;;;1.91;25.96;98796.94;12757659;23;20571;-76
2022/03/11 19:46:08;;;;;;;11.82;5.55;;;;;;;1.84;25.71;98792.75;12798581;23;20117;-76
2022/03/11 19:51:34;;;;;;;9.82;5.75;;;;;;;1.88;25.60;98803.47;12778299;23;20041;-76
2022/03/11 19:56:55;;;;;;;9.45;5.03;;;;;;;1.76;26.00;98805.56;12801287;23;20063;-76
2022/03/11 20:02:16;;;;;;;9.10;5.70;;;;;;;1.77;25.60;98820.81;12802377;23;20324;-76
2022/03/11 20:07:44;;;;;;;9.35;5.43;;;;;;;1.75;25.41;98822.59;12760236;23;20023;-76
2022/03/11 20:13:05;;;;;;;8.20;5.20;;;;;;;1.68;26.09;98826.63;12802865;23;20428;-76
2022/03/11 20:18:26;;;;;;;9.30;6.03;;;;;;;1.52;26.27;98817.19;12781503;23;20017;-76
2022/03/11 20:23:47;;;;;;;13.00;5.40;;;;;;;1.47;26.06;98822.72;12761221;23;20024;-75
2022/03/11 20:29:08;;;;;;;8.80;4.93;;;;;;;1.41;25.95;98823.47;12740036;23;20104;-76
2022/03/11 20:34:29;;;;;;;7.30;4.78;;;;;;;1.38;25.95;98819.00;12781394;23;20017;-77
2022/03/11 20:39:50;;;;;;;9.13;5.85;;;;;;;1.34;26.16;98818.50;12760977;23;20095;-76
2022/03/11 20:45:12;;;;;;;10.25;5.85;;;;;;;1.32;26.11;98823.78;12780915;23;20021;-76
2022/03/11 20:50:34;;;;;;;12.00;5.78;;;;;;;1.27;26.41;98819.06;12769075;23;20051;-79
2022/03/11 20:55:56;;;;;;;9.45;5.63;;;;;;;1.29;26.34;98818.53;12772757;23;20013;-80
2022/03/11 21:01:20;;;;;;;11.02;5.43;;;;;;;1.28;26.17;98814.28;12799849;23;20039;-78
2022/03/11 21:06:45;;;;;;;12.10;5.70;;;;;;;1.15;26.32;98818.31;12781075;23;20021;-76
2022/03/11 21:12:06;;;;;;;9.82;5.35;;;;;;;1.13;26.61;98820.09;12780802;23;20421;-77
2022/03/11 21:17:27;;;;;;;9.57;5.32;;;;;;;1.07;26.63;98802.88;12780026;23;20013;-77
2022/03/11 21:22:48;;;;;;;8.70;5.35;;;;;;;1.01;25.96;98802.88;12778019;23;20044;-77
2022/03/11 21:28:09;;;;;;;12.43;6.05;;;;;;;1.03;26.24;98802.38;12778152;23;20013;-77
2022/03/11 21:33:31;;;;;;;7.72;5.07;;;;;;;0.95;26.74;98793.88;12778103;23;20325;-78
2022/03/11 21:38:54;;;;;;;8.63;5.32;;;;;;;0.96;26.46;98800.13;12778271;23;20108;-77
2022/03/11 21:44:17;;;;;;;9.25;5.70;;;;;;;0.90;26.44;98808.41;12799309;23;20013;-77
2022/03/11 21:49:38;;;;;;;8.88;5.53;;;;;;;0.93;26.29;98806.66;12778500;23;20372;-77
2022/03/11 21:55:00;;;;;;;8.75;5.10;;;;;;;0.86;26.86;98805.91;12738246;23;20440;-77
2022/03/11 22:00:22;;;;;;;8.23;5.28;;;;;;;0.89;26.56;98798.66;12757989;23;20017;-77
2022/03/11 22:05:43;;;;;;;9.23;4.82;;;;;;;0.79;26.89;98797.44;12782330;23;20035;-77
2022/03/11 22:11:05;;;;;;;9.43;5.00;;;;;;;0.73;26.67;98793.94;12796716;23;20100;-77
2022/03/11 22:16:26;;;;;;;8.77;4.90;;;;;;;0.67;27.00;98804.94;12779998;23;20120;-77
2022/03/11 22:21:47;;;;;;;9.50;4.70;;;;;;;0.69;26.96;98790.72;12758732;23;20027;-77
2022/03/11 22:27:08;;;;;;;12.13;5.97;;;;;;;0.65;27.91;98799.19;12758377;23;20332;-77
2022/03/11 22:32:29;;;;;;;10.20;6.68;;;;;;;0.58;28.17;98805.22;12778611;23;20036;-78
2022/03/11 22:37:53;;;;;;;12.95;6.60;;;;;;;0.51;28.18;98791.97;12778495;23;20055;-77
2022/03/11 22:43:14;;;;;;;17.23;7.97;;;;;;;0.39;29.08;98796.00;12779505;23;20025;-77
2022/03/11 22:48:38;;;;;;;12.35;7.18;;;;;;;0.34;29.85;98789.25;12757574;23;20021;-77
2022/03/11 22:54:01;;;;;;;13.55;7.72;;;;;;;0.27;29.85;98792.47;12779234;23;20028;-77
2022/03/11 22:59:26;;;;;;;16.63;7.97;;;;;;;0.19;29.74;98786.75;12779456;23;20024;-77
2022/03/11 23:04:47;;;;;;;11.80;6.70;;;;;;;0.12;30.38;98790.00;12787814;23;20021;-77
2022/03/11 23:10:08;;;;;;;14.70;7.78;;;;;;;0.08;30.96;98792.22;12758004;23;20017;-78
2022/03/11 23:15:29;;;;;;;12.80;7.53;;;;;;;0.05;30.72;98792.47;12757014;23;20013;-77
2022/03/11 23:20:50;;;;;;;16.88;8.27;;;;;;;0.02;29.85;98799.72;12778804;23;20020;-77
2022/03/11 23:26:12;;;;;;;13.52;7.93;;;;;;;0.03;30.53;98781.25;12733318;23;20064;-77
2022/03/11 23:31:32;;;;;;;12.63;7.78;;;;;;;-0.01;30.55;98776.00;12760334;23;20024;-77
2022/03/11 23:36:53;;;;;;;13.13;7.43;;;;;;;-0.15;31.13;98766.75;12782270;23;20021;-77
2022/03/11 23:42:14;;;;;;;15.45;7.88;;;;;;;-0.19;31.26;98769.00;12760963;23;20055;-77
2022/03/11 23:47:35;;;;;;;11.98;8.10;;;;;;;-0.33;32.18;98770.72;12761515;23;20017;-77
2022/03/11 23:52:57;;;;;;;14.40;7.75;;;;;;;-0.44;32.23;98764.47;12781441;23;20013;-77
2022/03/11 23:58:18;;;;;;;15.63;8.68;;;;;;;-0.54;32.23;98763.94;12741072;23;20029;-77
